createdAt,value
2022-09-05T00:12:04.206Z,101498.13
2022-09-05T00:24:37.160Z,101501.55
2022-09-05T00:35:42.751Z,101498.17
2022-09-05T00:47:03.775Z,101494.48
2022-09-05T00:58:52.147Z,101489.96
2022-09-05T01:10:35.271Z,101491.69
2022-09-05T01:22:21.691Z,101494.34
2022-09-05T01:33:51.429Z,101502.86
2022-09-05T01:45:56.948Z,101503.73
2022-09-05T01:57:35.936Z,101505.39
2022-09-05T02:09:15.121Z,101504.58
2022-09-05T02:21:14.943Z,101506.46
2022-09-05T02:33:04.434Z,101509.86
2022-09-05T02:45:08.518Z,101519.07
2022-09-05T02:57:43.078Z,101516.96
2022-09-05T03:09:22.097Z,101521.13
2022-09-05T03:21:09.274Z,101524.10
2022-09-05T03:32:50.280Z,101532.15
2022-09-05T03:44:41.332Z,101530.59
2022-09-05T03:57:27.376Z,101544.44
2022-09-05T04:08:41.961Z,101549.70
2022-09-05T04:20:24.089Z,101547.41
2022-09-05T04:32:18.181Z,101558.33
2022-09-05T04:44:14.430Z,101573.73
2022-09-05T04:55:54.246Z,101577.23
2022-09-05T05:07:51.348Z,101586.92
2022-09-05T05:19:29.674Z,101589.99
2022-09-05T05:31:03.659Z,101597.05
2022-09-05T05:42:36.870Z,101597.69
2022-09-05T05:54:03.871Z,101597.75
2022-09-05T06:05:24.293Z,101607.58
2022-09-05T06:16:58.563Z,101615.02
2022-09-05T06:28:35.955Z,101622.23
2022-09-05T06:40:06.350Z,101623.94
2022-09-05T06:51:49.187Z,101630.59
2022-09-05T07:03:52.354Z,101642.50
2022-09-05T07:15:37.114Z,101647.55
2022-09-05T07:26:51.412Z,101650.64
2022-09-05T07:38:15.205Z,101654.80
2022-09-05T07:50:50.202Z,101658.55
2022-09-05T08:01:32.988Z,101654.42
2022-09-05T08:13:22.506Z,101657.05
2022-09-05T08:24:40.233Z,101654.59
2022-09-05T08:36:14.512Z,101654.58
2022-09-05T08:47:57.359Z,101643.05
2022-09-05T08:59:38.464Z,101638.88
2022-09-05T09:11:21.680Z,101631.77
2022-09-05T09:22:54.219Z,101622.42
2022-09-05T09:34:36.782Z,101609.40
2022-09-05T09:45:47.238Z,101597.20
2022-09-05T09:57:10.516Z,101590.19
2022-09-05T10:10:47.950Z,101583.34
2022-09-05T10:20:10.608Z,101576.09
2022-09-05T10:33:35.216Z,101576.70
2022-09-05T10:42:30.224Z,101566.62
2022-09-05T10:53:54.235Z,101560.52
2022-09-05T11:05:11.550Z,101557.13
2022-09-05T11:16:24.164Z,101547.91
2022-09-05T11:27:23.322Z,101547.13
2022-09-05T11:39:51.604Z,101548.74
2022-09-05T11:50:12.411Z,101535.54
2022-09-05T12:01:42.852Z,101523.23
2022-09-05T12:12:50.006Z,101519.91
2022-09-05T12:25:15.602Z,101516.52
2022-09-05T12:36:07.376Z,101503.73
2022-09-05T12:46:26.763Z,101493.08
2022-09-05T13:00:58.521Z,101486.95
2022-09-05T13:09:02.552Z,101473.61
2022-09-05T13:20:09.183Z,101465.02
2022-09-05T13:38:04.004Z,101454.09
2022-09-05T13:42:49.655Z,101439.27
2022-09-05T13:54:36.468Z,101438.58
2022-09-05T14:05:33.262Z,101431.79
2022-09-05T14:27:47.348Z,101422.75
2022-09-05T14:38:16.789Z,101417.89
2022-09-05T14:48:58.420Z,101416.74
2022-09-05T15:02:48.565Z,101411.86
2022-09-05T15:12:20.314Z,101407.88
2022-09-05T15:21:38.290Z,101403.55
2022-09-05T15:32:09.629Z,101396.52
2022-09-05T15:42:24.106Z,101395.91
2022-09-05T15:52:45.909Z,101393.21
2022-09-05T16:04:05.666Z,101388.70
2022-09-05T16:13:52.432Z,101383.80
2022-09-05T16:24:24.812Z,101374.59
2022-09-05T16:35:15.980Z,101369.41
2022-09-05T16:46:39.703Z,101363.23
2022-09-05T16:57:25.613Z,101368.36
2022-09-05T17:08:24.361Z,101361.52
2022-09-05T17:18:59.881Z,101360.54
2022-09-05T17:31:48.847Z,101363.98
2022-09-05T17:41:58.724Z,101366.51
2022-09-05T17:53:25.896Z,101374.08
2022-09-05T18:04:17.579Z,101384.05
2022-09-05T18:15:05.221Z,101390.86
2022-09-05T18:37:48.953Z,101400.16
2022-09-05T18:49:56.528Z,101405.84
2022-09-05T19:00:25.635Z,101402.81
2022-09-05T19:11:53.187Z,101398.81
2022-09-05T19:23:10.313Z,101388.20
2022-09-05T19:36:49.414Z,101389.11
2022-09-05T19:47:42.240Z,101388.63
2022-09-05T19:57:27.300Z,101389.60
2022-09-05T20:08:54.388Z,101393.38
2022-09-05T20:43:35.847Z,101397.10
2022-09-05T20:54:46.510Z,101398.39
2022-09-05T21:06:14.498Z,101395.99
2022-09-05T21:17:27.838Z,101403.13
2022-09-05T21:28:17.848Z,101406.77
2022-09-05T21:39:31.975Z,101412.84
2022-09-05T21:50:56.058Z,101414.63
2022-09-05T22:02:11.829Z,101419.33
2022-09-05T22:13:35.909Z,101416.38
2022-09-05T22:24:40.983Z,101415.15
2022-09-05T22:35:55.733Z,101413.20
2022-09-05T22:47:09.580Z,101416.34
2022-09-05T22:58:19.320Z,101416.50
2022-09-05T23:09:28.847Z,101416.63
2022-09-05T23:20:35.220Z,101414.00
2022-09-05T23:31:51.799Z,101408.64
2022-09-05T23:43:14.957Z,101408.15
2022-09-05T23:54:31.578Z,101409.07
